sensor_id;sensor_type;location;lat;lon;timestamp;pressure;altitude;pressure_sealevel;temperature;humidity
75192;BME280;63771;52.580;9.734;2023-02-03T00:01:39;101611.22;;;6.78;96.60
75192;BME280;63771;52.580;9.734;2023-02-03T00:04:04;101610.09;;;6.84;96.70
75192;BME280;63771;52.580;9.734;2023-02-03T00:06:31;101609.53;;;6.86;96.27
75192;BME280;63771;52.580;9.734;2023-02-03T00:08:57;101610.59;;;6.88;96.38
75192;BME280;63771;52.580;9.734;2023-02-03T00:11:24;101601.31;;;6.96;96.25
75192;BME280;63771;52.580;9.734;2023-02-03T00:13:50;101605.81;;;6.98;96.22
75192;BME280;63771;52.580;9.734;2023-02-03T00:16:15;101597.31;;;6.98;95.69
75192;BME280;63771;52.580;9.734;2023-02-03T00:18:41;101591.50;;;6.99;96.04
75192;BME280;63771;52.580;9.734;2023-02-03T00:21:06;101581.53;;;7.00;95.92
75192;BME280;63771;52.580;9.734;2023-02-03T00:23:32;101583.19;;;7.00;96.12
75192;BME280;63771;52.580;9.734;2023-02-03T00:26:06;101592.59;;;7.01;96.02
75192;BME280;63771;52.580;9.734;2023-02-03T00:28:31;101597.25;;;7.05;95.73
75192;BME280;63771;52.580;9.734;2023-02-03T00:30:56;101589.22;;;7.09;95.54
75192;BME280;63771;52.580;9.734;2023-02-03T00:33:22;101592.50;;;7.08;95.79
75192;BME280;63771;52.580;9.734;2023-02-03T00:35:47;101601.22;;;7.10;95.83
75192;BME280;63771;52.580;9.734;2023-02-03T00:38:13;101587.19;;;7.14;95.65
75192;BME280;63771;52.580;9.734;2023-02-03T00:40:39;101581.81;;;7.11;95.45
75192;BME280;63771;52.580;9.734;2023-02-03T00:43:04;101597.34;;;7.14;95.51
75192;BME280;63771;52.580;9.734;2023-02-03T00:45:29;101593.59;;;7.10;95.60
75192;BME280;63771;52.580;9.734;2023-02-03T00:47:55;101588.53;;;7.10;95.55
75192;BME280;63771;52.580;9.734;2023-02-03T00:50:20;101573.47;;;7.12;95.51
75192;BME280;63771;52.580;9.734;2023-02-03T00:52:45;101573.63;;;7.13;95.36
75192;BME280;63771;52.580;9.734;2023-02-03T00:55:11;101571.44;;;7.16;95.16
75192;BME280;63771;52.580;9.734;2023-02-03T00:57:36;101576.50;;;7.16;95.24
75192;BME280;63771;52.580;9.734;2023-02-03T01:00:03;101570.69;;;7.17;95.23
75192;BME280;63771;52.580;9.734;2023-02-03T01:02:28;101557.59;;;7.21;94.93
75192;BME280;63771;52.580;9.734;2023-02-03T01:04:53;101570.28;;;7.21;95.07
75192;BME280;63771;52.580;9.734;2023-02-03T01:07:19;101569.53;;;7.22;94.96
75192;BME280;63771;52.580;9.734;2023-02-03T01:09:44;101569.38;;;7.21;95.03
75192;BME280;63771;52.580;9.734;2023-02-03T01:12:09;101569.69;;;7.24;94.77
75192;BME280;63771;52.580;9.734;2023-02-03T01:14:35;101579.31;;;7.26;94.39
75192;BME280;63771;52.580;9.734;2023-02-03T01:17:00;101577.47;;;7.25;94.71
75192;BME280;63771;52.580;9.734;2023-02-03T01:19:26;101571.19;;;7.22;95.04
75192;BME280;63771;52.580;9.734;2023-02-03T01:21:51;101574.22;;;7.26;94.51
75192;BME280;63771;52.580;9.734;2023-02-03T01:24:16;101574.78;;;7.24;94.82
75192;BME280;63771;52.580;9.734;2023-02-03T01:26:42;101570.59;;;7.24;94.36
75192;BME280;63771;52.580;9.734;2023-02-03T01:29:08;101563.00;;;7.24;94.70
75192;BME280;63771;52.580;9.734;2023-02-03T01:31:36;101568.06;;;7.24;94.32
75192;BME280;63771;52.580;9.734;2023-02-03T01:34:04;101573.78;;;7.30;93.99
75192;BME280;63771;52.580;9.734;2023-02-03T01:36:31;101567.66;;;7.28;93.96
75192;BME280;63771;52.580;9.734;2023-02-03T01:38:56;101557.50;;;7.28;93.86
75192;BME280;63771;52.580;9.734;2023-02-03T01:41:25;101547.72;;;7.31;93.43
75192;BME280;63771;52.580;9.734;2023-02-03T01:43:52;101546.06;;;7.32;93.29
75192;BME280;63771;52.580;9.734;2023-02-03T01:46:42;101545.31;;;7.33;93.32
75192;BME280;63771;52.580;9.734;2023-02-03T01:49:13;101533.69;;;7.35;93.11
75192;BME280;63771;52.580;9.734;2023-02-03T01:51:43;101521.91;;;7.36;92.96
75192;BME280;63771;52.580;9.734;2023-02-03T01:54:16;101518.66;;;7.37;92.75
75192;BME280;63771;52.580;9.734;2023-02-03T01:56:48;101517.56;;;7.35;92.50
75192;BME280;63771;52.580;9.734;2023-02-03T01:59:18;101515.38;;;7.38;92.73
75192;BME280;63771;52.580;9.734;2023-02-03T02:01:46;101514.28;;;7.36;92.84
75192;BME280;63771;52.580;9.734;2023-02-03T02:04:12;101509.19;;;7.36;92.59
75192;BME280;63771;52.580;9.734;2023-02-03T02:06:37;101501.59;;;7.36;92.60
75192;BME280;63771;52.580;9.734;2023-02-03T02:09:03;101509.19;;;7.36;92.31
75192;BME280;63771;52.580;9.734;2023-02-03T02:11:28;101486.34;;;7.36;92.30
75192;BME280;63771;52.580;9.734;2023-02-03T02:13:57;101493.41;;;7.38;92.11
75192;BME280;63771;52.580;9.734;2023-02-03T02:16:48;101494.16;;;7.37;92.36
75192;BME280;63771;52.580;9.734;2023-02-03T02:35:31;101471.06;;;7.43;91.57
75192;BME280;63771;52.580;9.734;2023-02-03T02:38:18;101466.13;;;7.44;90.77
75192;BME280;63771;52.580;9.734;2023-02-03T02:43:43;101449.91;;;7.51;90.80
75192;BME280;63771;52.580;9.734;2023-02-03T02:46:19;101436.06;;;7.56;90.13
75192;BME280;63771;52.580;9.734;2023-02-03T02:48:53;101426.66;;;7.55;90.07
75192;BME280;63771;52.580;9.734;2023-02-03T02:51:22;101422.47;;;7.55;90.02
75192;BME280;63771;52.580;9.734;2023-02-03T02:53:52;101430.69;;;7.53;90.31
75192;BME280;63771;52.580;9.734;2023-02-03T02:56:19;101436.06;;;7.56;89.97
75192;BME280;63771;52.580;9.734;2023-02-03T02:58:47;101441.88;;;7.55;89.75
75192;BME280;63771;52.580;9.734;2023-02-03T03:01:14;101446.66;;;7.52;89.99
75192;BME280;63771;52.580;9.734;2023-02-03T03:03:40;101443.69;;;7.56;89.77
75192;BME280;63771;52.580;9.734;2023-02-03T03:06:18;101442.50;;;7.61;89.83
75192;BME280;63771;52.580;9.734;2023-02-03T03:09:07;101440.31;;;7.64;88.94
75192;BME280;63771;52.580;9.734;2023-02-03T03:11:42;101443.59;;;7.63;89.34
75192;BME280;63771;52.580;9.734;2023-02-03T03:14:10;101436.28;;;7.66;89.38
75192;BME280;63771;52.580;9.734;2023-02-03T03:16:42;101434.16;;;7.62;89.60
75192;BME280;63771;52.580;9.734;2023-02-03T03:19:18;101441.63;;;7.61;89.61
75192;BME280;63771;52.580;9.734;2023-02-03T03:21:52;101413.84;;;7.62;89.04
75192;BME280;63771;52.580;9.734;2023-02-03T03:24:24;101417.13;;;7.61;89.44
75192;BME280;63771;52.580;9.734;2023-02-03T03:26:55;101416.22;;;7.61;89.27
75192;BME280;63771;52.580;9.734;2023-02-03T03:29:30;101425.50;;;7.60;89.20
75192;BME280;63771;52.580;9.734;2023-02-03T03:32:00;101420.75;;;7.63;88.74
75192;BME280;63771;52.580;9.734;2023-02-03T03:34:26;101397.03;;;7.71;87.91
75192;BME280;63771;52.580;9.734;2023-02-03T03:36:59;101414.31;;;7.67;88.50
75192;BME280;63771;52.580;9.734;2023-02-03T03:39:33;101423.78;;;7.68;88.46
75192;BME280;63771;52.580;9.734;2023-02-03T03:42:07;101397.78;;;7.70;87.78
75192;BME280;63771;52.580;9.734;2023-02-03T03:44:38;101389.41;;;7.71;87.62
75192;BME280;63771;52.580;9.734;2023-02-03T03:47:23;101388.56;;;7.79;87.18
75192;BME280;63771;52.580;9.734;2023-02-03T03:49:52;101400.06;;;7.76;87.27
75192;BME280;63771;52.580;9.734;2023-02-03T03:52:23;101395.13;;;7.77;87.21
75192;BME280;63771;52.580;9.734;2023-02-03T03:54:52;101395.13;;;7.77;87.24
75192;BME280;63771;52.580;9.734;2023-02-03T03:57:22;101396.94;;;7.78;86.81
75192;BME280;63771;52.580;9.734;2023-02-03T03:59:49;101396.50;;;7.82;86.56
75192;BME280;63771;52.580;9.734;2023-02-03T04:02:16;101395.94;;;7.85;86.63
75192;BME280;63771;52.580;9.734;2023-02-03T04:04:44;101373.63;;;7.82;86.86
75192;BME280;63771;52.580;9.734;2023-02-03T04:07:11;101372.91;;;7.83;86.50
75192;BME280;63771;52.580;9.734;2023-02-03T04:09:37;101373.63;;;7.82;86.53
75192;BME280;63771;52.580;9.734;2023-02-03T04:12:04;101382.47;;;7.86;86.20
75192;BME280;63771;52.580;9.734;2023-02-03T04:14:34;101375.75;;;7.87;86.31
75192;BME280;63771;52.580;9.734;2023-02-03T04:17:03;101375.47;;;7.92;86.13
75192;BME280;63771;52.580;9.734;2023-02-03T04:19:29;101361.75;;;7.90;85.95
75192;BME280;63771;52.580;9.734;2023-02-03T04:21:54;101387.28;;;7.92;85.72
75192;BME280;63771;52.580;9.734;2023-02-03T04:24:19;101381.47;;;7.93;85.84
75192;BME280;63771;52.580;9.734;2023-02-03T04:26:45;101389.09;;;7.93;85.81
75192;BME280;63771;52.580;9.734;2023-02-03T04:29:10;101386.88;;;7.96;85.76
75192;BME280;63771;52.580;9.734;2023-02-03T04:31:36;101372.78;;;7.91;85.67
75192;BME280;63771;52.580;9.734;2023-02-03T04:34:03;101391.63;;;7.93;86.18
75192;BME280;63771;52.580;9.734;2023-02-03T04:36:28;101384.75;;;7.92;86.04
75192;BME280;63771;52.580;9.734;2023-02-03T04:38:53;101383.72;;;7.90;86.08
75192;BME280;63771;52.580;9.734;2023-02-03T04:41:19;101403.28;;;7.91;85.65
75192;BME280;63771;52.580;9.734;2023-02-03T04:43:44;101379.66;;;7.92;85.61
75192;BME280;63771;52.580;9.734;2023-02-03T04:46:10;101383.84;;;7.91;85.19
75192;BME280;63771;52.580;9.734;2023-02-03T04:48:35;101386.28;;;7.98;84.64
75192;BME280;63771;52.580;9.734;2023-02-03T04:51:02;101372.25;;;8.02;84.89
75192;BME280;63771;52.580;9.734;2023-02-03T04:53:28;101373.75;;;8.00;85.02
75192;BME280;63771;52.580;9.734;2023-02-03T04:55:53;101369.22;;;7.97;84.92
75192;BME280;63771;52.580;9.734;2023-02-03T04:58:19;101368.66;;;8.00;85.19
75192;BME280;63771;52.580;9.734;2023-02-03T05:00:44;101366.28;;;8.01;84.74
75192;BME280;63771;52.580;9.734;2023-02-03T05:03:09;101353.72;;;8.03;84.67
75192;BME280;63771;52.580;9.734;2023-02-03T05:05:35;101361.19;;;8.01;84.50
75192;BME280;63771;52.580;9.734;2023-02-03T05:08:00;101358.50;;;8.00;84.46
75192;BME280;63771;52.580;9.734;2023-02-03T05:10:25;101337.69;;;7.95;84.72
75192;BME280;63771;52.580;9.734;2023-02-03T05:12:51;101353.09;;;7.97;84.98
75192;BME280;63771;52.580;9.734;2023-02-03T05:15:16;101328.31;;;8.03;84.81
75192;BME280;63771;52.580;9.734;2023-02-03T05:17:42;101321.13;;;7.99;84.55
75192;BME280;63771;52.580;9.734;2023-02-03T05:20:08;101306.78;;;7.99;84.60
75192;BME280;63771;52.580;9.734;2023-02-03T05:22:33;101307.81;;;8.01;84.35
75192;BME280;63771;52.580;9.734;2023-02-03T05:25:00;101302.91;;;8.03;84.58
75192;BME280;63771;52.580;9.734;2023-02-03T05:27:25;101298.41;;;8.00;84.93
75192;BME280;63771;52.580;9.734;2023-02-03T05:29:51;101293.75;;;7.96;85.44
75192;BME280;63771;52.580;9.734;2023-02-03T05:32:16;101296.16;;;7.95;85.64
75192;BME280;63771;52.580;9.734;2023-02-03T05:34:41;101303.94;;;7.96;85.76
75192;BME280;63771;52.580;9.734;2023-02-03T05:37:07;101304.34;;;7.92;86.00
75192;BME280;63771;52.580;9.734;2023-02-03T05:39:32;101319.88;;;7.87;86.65
75192;BME280;63771;52.580;9.734;2023-02-03T05:41:57;101317.47;;;7.88;86.57
75192;BME280;63771;52.580;9.734;2023-02-03T05:44:25;101307.91;;;7.85;87.19
75192;BME280;63771;52.580;9.734;2023-02-03T05:46:52;101309.09;;;7.80;87.27
75192;BME280;63771;52.580;9.734;2023-02-03T05:49:18;101327.63;;;7.79;87.49
75192;BME280;63771;52.580;9.734;2023-02-03T05:51:44;101319.53;;;7.75;87.62
75192;BME280;63771;52.580;9.734;2023-02-03T05:54:10;101332.78;;;7.72;88.00
75192;BME280;63771;52.580;9.734;2023-02-03T05:56:36;101328.78;;;7.74;87.69
75192;BME280;63771;52.580;9.734;2023-02-03T05:59:01;101316.22;;;7.76;87.86
75192;BME280;63771;52.580;9.734;2023-02-03T06:01:26;101338.94;;;7.74;87.77
75192;BME280;63771;52.580;9.734;2023-02-03T06:03:52;101325.34;;;7.74;88.04
75192;BME280;63771;52.580;9.734;2023-02-03T06:06:17;101343.13;;;7.74;88.07
75192;BME280;63771;52.580;9.734;2023-02-03T06:08:43;101322.47;;;7.71;88.58
75192;BME280;63771;52.580;9.734;2023-02-03T06:11:09;101323.97;;;7.69;88.51
75192;BME280;63771;52.580;9.734;2023-02-03T06:13:34;101324.88;;;7.69;88.72
75192;BME280;63771;52.580;9.734;2023-02-03T06:16:00;101315.00;;;7.72;88.75
75192;BME280;63771;52.580;9.734;2023-02-03T06:18:25;101322.34;;;7.69;89.25
75192;BME280;63771;52.580;9.734;2023-02-03T06:20:51;101308.28;;;7.64;89.89
75192;BME280;63771;52.580;9.734;2023-02-03T06:23:16;101327.22;;;7.59;90.18
75192;BME280;63771;52.580;9.734;2023-02-03T06:25:43;101303.47;;;7.58;90.13
75192;BME280;63771;52.580;9.734;2023-02-03T06:28:09;101318.97;;;7.53;90.44
75192;BME280;63771;52.580;9.734;2023-02-03T06:30:34;101300.28;;;7.52;90.78
75192;BME280;63771;52.580;9.734;2023-02-03T06:32:59;101302.66;;;7.51;90.84
75192;BME280;63771;52.580;9.734;2023-02-03T06:35:25;101314.63;;;7.52;90.78
75192;BME280;63771;52.580;9.734;2023-02-03T06:37:50;101294.75;;;7.48;91.30
75192;BME280;63771;52.580;9.734;2023-02-03T06:40:16;101296.53;;;7.49;91.23
75192;BME280;63771;52.580;9.734;2023-02-03T06:42:44;101294.63;;;7.55;90.83
75192;BME280;63771;52.580;9.734;2023-02-03T06:45:10;101284.88;;;7.51;91.63
75192;BME280;63771;52.580;9.734;2023-02-03T06:47:38;101296.94;;;7.45;92.13
75192;BME280;63771;52.580;9.734;2023-02-03T06:50:03;101296.38;;;7.47;92.42
75192;BME280;63771;52.580;9.734;2023-02-03T06:52:29;101273.63;;;7.40;92.48
75192;BME280;63771;52.580;9.734;2023-02-03T06:54:54;101262.28;;;7.37;93.15
75192;BME280;63771;52.580;9.734;2023-02-03T06:57:19;101261.81;;;7.65;92.85
75192;BME280;63771;52.580;9.734;2023-02-03T06:59:45;101262.94;;;7.84;92.66
75192;BME280;63771;52.580;9.734;2023-02-03T07:02:10;101263.72;;;8.51;89.95
75192;BME280;63771;52.580;9.734;2023-02-03T07:04:36;101264.84;;;8.20;88.71
75192;BME280;63771;52.580;9.734;2023-02-03T07:07:02;101261.31;;;7.85;90.34
75192;BME280;63771;52.580;9.734;2023-02-03T07:09:28;101250.06;;;7.74;90.79
75192;BME280;63771;52.580;9.734;2023-02-03T07:11:53;101260.03;;;7.64;91.17
75192;BME280;63771;52.580;9.734;2023-02-03T07:14:18;101262.97;;;7.60;91.85
75192;BME280;63771;52.580;9.734;2023-02-03T07:16:44;101268.34;;;7.54;92.04
75192;BME280;63771;52.580;9.734;2023-02-03T07:19:09;101272.03;;;7.49;92.33
75192;BME280;63771;52.580;9.734;2023-02-03T07:21:34;101265.03;;;7.47;92.62
75192;BME280;63771;52.580;9.734;2023-02-03T07:24:00;101267.56;;;7.47;92.62
75192;BME280;63771;52.580;9.734;2023-02-03T07:26:27;101252.16;;;7.45;93.04
75192;BME280;63771;52.580;9.734;2023-02-03T07:28:52;101249.47;;;7.44;92.81
75192;BME280;63771;52.580;9.734;2023-02-03T07:31:18;101259.28;;;7.41;93.35
75192;BME280;63771;52.580;9.734;2023-02-03T07:33:44;101244.97;;;7.41;93.46
75192;BME280;63771;52.580;9.734;2023-02-03T07:36:10;101237.19;;;7.40;93.65
75192;BME280;63771;52.580;9.734;2023-02-03T07:38:36;101249.13;;;7.41;93.53
75192;BME280;63771;52.580;9.734;2023-02-03T07:41:03;101240.06;;;7.43;93.19
75192;BME280;63771;52.580;9.734;2023-02-03T07:43:28;101247.69;;;7.43;92.85
75192;BME280;63771;52.580;9.734;2023-02-03T07:45:54;101237.09;;;7.47;92.61
75192;BME280;63771;52.580;9.734;2023-02-03T07:48:19;101238.16;;;7.49;92.79
75192;BME280;63771;52.580;9.734;2023-02-03T07:50:46;101238.47;;;7.52;92.32
75192;BME280;63771;52.580;9.734;2023-02-03T07:53:12;101239.50;;;7.54;92.22
75192;BME280;63771;52.580;9.734;2023-02-03T07:55:38;101252.81;;;7.60;91.72
75192;BME280;63771;52.580;9.734;2023-02-03T07:58:04;101221.59;;;7.61;91.65
75192;BME280;63771;52.580;9.734;2023-02-03T08:00:29;101238.22;;;7.66;91.38
75192;BME280;63771;52.580;9.734;2023-02-03T08:02:54;101239.16;;;7.75;90.51
75192;BME280;63771;52.580;9.734;2023-02-03T08:05:20;101237.50;;;7.76;90.58
75192;BME280;63771;52.580;9.734;2023-02-03T08:07:45;101246.00;;;7.76;90.32
75192;BME280;63771;52.580;9.734;2023-02-03T08:10:12;101242.16;;;7.80;90.15
75192;BME280;63771;52.580;9.734;2023-02-03T08:12:38;101230.50;;;7.82;89.99
75192;BME280;63771;52.580;9.734;2023-02-03T08:15:04;101246.19;;;7.87;89.79
75192;BME280;63771;52.580;9.734;2023-02-03T08:17:30;101221.25;;;7.91;89.37
75192;BME280;63771;52.580;9.734;2023-02-03T08:19:55;101221.88;;;7.89;89.60
75192;BME280;63771;52.580;9.734;2023-02-03T08:22:20;101220.38;;;7.91;89.68
75192;BME280;63771;52.580;9.734;2023-02-03T08:24:46;101222.78;;;7.98;89.49
75192;BME280;63771;52.580;9.734;2023-02-03T08:27:13;101240.41;;;7.96;89.29
75192;BME280;63771;52.580;9.734;2023-02-03T08:29:39;101238.34;;;8.01;88.76
75192;BME280;63771;52.580;9.734;2023-02-03T08:32:08;101241.34;;;8.05;88.76
75192;BME280;63771;52.580;9.734;2023-02-03T08:34:34;101216.22;;;8.08;88.42
75192;BME280;63771;52.580;9.734;2023-02-03T08:36:59;101218.00;;;8.01;88.82
75192;BME280;63771;52.580;9.734;2023-02-03T08:39:25;101229.97;;;8.02;89.46
75192;BME280;63771;52.580;9.734;2023-02-03T08:41:51;101224.59;;;7.99;89.86
75192;BME280;63771;52.580;9.734;2023-02-03T08:44:16;101225.91;;;7.95;89.94
75192;BME280;63771;52.580;9.734;2023-02-03T08:46:44;101213.34;;;7.97;89.51
75192;BME280;63771;52.580;9.734;2023-02-03T08:49:09;101215.03;;;8.05;89.05
75192;BME280;63771;52.580;9.734;2023-02-03T08:51:35;101223.13;;;8.09;89.16
75192;BME280;63771;52.580;9.734;2023-02-03T08:54:00;101206.06;;;8.08;89.25
75192;BME280;63771;52.580;9.734;2023-02-03T08:56:26;101210.84;;;8.05;89.80
75192;BME280;63771;52.580;9.734;2023-02-03T08:58:52;101231.63;;;8.10;89.98
75192;BME280;63771;52.580;9.734;2023-02-03T09:01:18;101236.81;;;8.03;90.63
75192;BME280;63771;52.580;9.734;2023-02-03T09:03:43;101226.97;;;8.06;90.38
75192;BME280;63771;52.580;9.734;2023-02-03T09:06:09;101248.53;;;8.09;90.50
75192;BME280;63771;52.580;9.734;2023-02-03T09:08:37;101230.56;;;8.08;90.08
75192;BME280;63771;52.580;9.734;2023-02-03T09:11:07;101246.56;;;8.07;90.08
75192;BME280;63771;52.580;9.734;2023-02-03T09:13:32;101230.56;;;8.08;90.88
75192;BME280;63771;52.580;9.734;2023-02-03T09:15:59;101240.13;;;8.02;91.61
75192;BME280;63771;52.580;9.734;2023-02-03T09:18:24;101234.91;;;8.00;91.76
75192;BME280;63771;52.580;9.734;2023-02-03T09:20:50;101237.44;;;8.00;91.79
75192;BME280;63771;52.580;9.734;2023-02-03T09:23:15;101233.25;;;8.01;91.31
75192;BME280;63771;52.580;9.734;2023-02-03T09:25:40;101233.09;;;8.08;90.86
75192;BME280;63771;52.580;9.734;2023-02-03T09:28:06;101250.31;;;8.10;90.83
75192;BME280;63771;52.580;9.734;2023-02-03T09:30:31;101238.94;;;8.07;91.53
75192;BME280;63771;52.580;9.734;2023-02-03T09:32:56;101236.13;;;8.04;92.47
75192;BME280;63771;52.580;9.734;2023-02-03T09:35:23;101234.75;;;7.99;92.34
75192;BME280;63771;52.580;9.734;2023-02-03T09:37:48;101246.38;;;7.97;92.50
75192;BME280;63771;52.580;9.734;2023-02-03T09:40:26;101224.28;;;7.96;92.57
75192;BME280;63771;52.580;9.734;2023-02-03T09:43:07;101225.63;;;8.01;92.12
75192;BME280;63771;52.580;9.734;2023-02-03T09:45:35;101244.44;;;8.03;91.48
75192;BME280;63771;52.580;9.734;2023-02-03T09:48:16;101237.00;;;8.04;91.57
75192;BME280;63771;52.580;9.734;2023-02-03T09:50:45;101239.69;;;8.06;91.55
75192;BME280;63771;52.580;9.734;2023-02-03T09:55:50;101242.97;;;8.05;91.94
75192;BME280;63771;52.580;9.734;2023-02-03T09:58:18;101244.91;;;8.07;91.72
75192;BME280;63771;52.580;9.734;2023-02-03T10:00:50;101241.81;;;8.10;91.76
75192;BME280;63771;52.580;9.734;2023-02-03T10:03:45;101249.44;;;8.10;91.41
75192;BME280;63771;52.580;9.734;2023-02-03T10:12:07;101257.47;;;8.06;91.41
75192;BME280;63771;52.580;9.734;2023-02-03T10:19:56;101307.63;;;7.33;88.06
75192;BME280;63771;52.580;9.734;2023-02-03T10:22:26;101301.91;;;7.03;86.79
75192;BME280;63771;52.580;9.734;2023-02-03T10:25:04;101308.22;;;6.91;86.12
75192;BME280;63771;52.580;9.734;2023-02-03T10:27:32;101303.66;;;6.79;85.73
75192;BME280;63771;52.580;9.734;2023-02-03T10:30:21;101299.38;;;6.87;86.84
75192;BME280;63771;52.580;9.734;2023-02-03T10:32:53;101307.25;;;6.82;88.94
75192;BME280;63771;52.580;9.734;2023-02-03T10:35:27;101318.38;;;6.91;85.54
75192;BME280;63771;52.580;9.734;2023-02-03T10:37:57;101317.72;;;7.00;85.74
75192;BME280;63771;52.580;9.734;2023-02-03T10:40:24;101323.28;;;7.05;84.78
75192;BME280;63771;52.580;9.734;2023-02-03T10:42:50;101344.78;;;7.09;85.29
75192;BME280;63771;52.580;9.734;2023-02-03T10:45:36;101337.66;;;7.13;83.94
75192;BME280;63771;52.580;9.734;2023-02-03T10:48:04;101344.44;;;7.21;82.94
75192;BME280;63771;52.580;9.734;2023-02-03T10:50:31;101347.91;;;7.30;80.54
75192;BME280;63771;52.580;9.734;2023-02-03T10:55:42;101333.25;;;7.44;80.90
75192;BME280;63771;52.580;9.734;2023-02-03T10:58:14;101328.22;;;7.52;80.80
75192;BME280;63771;52.580;9.734;2023-02-03T11:00:40;101338.13;;;7.58;80.40
75192;BME280;63771;52.580;9.734;2023-02-03T11:05:34;101353.56;;;7.68;82.05
75192;BME280;63771;52.580;9.734;2023-02-03T11:08:00;101348.84;;;7.80;82.70
75192;BME280;63771;52.580;9.734;2023-02-03T11:10:33;101356.31;;;7.87;81.49
75192;BME280;63771;52.580;9.734;2023-02-03T11:13:23;101353.84;;;7.96;81.50
75192;BME280;63771;52.580;9.734;2023-02-03T11:18:50;101341.94;;;8.12;81.37
75192;BME280;63771;52.580;9.734;2023-02-03T11:21:19;101353.47;;;8.17;81.74
75192;BME280;63771;52.580;9.734;2023-02-03T11:26:13;101351.59;;;8.32;79.97
75192;BME280;63771;52.580;9.734;2023-02-03T11:28:44;101362.41;;;8.38;80.76
75192;BME280;63771;52.580;9.734;2023-02-03T11:31:19;101355.38;;;8.44;79.89
75192;BME280;63771;52.580;9.734;2023-02-03T11:33:47;101358.72;;;8.52;79.63
75192;BME280;63771;52.580;9.734;2023-02-03T11:36:16;101357.81;;;8.60;77.60
75192;BME280;63771;52.580;9.734;2023-02-03T11:38:41;101352.44;;;8.66;76.49
75192;BME280;63771;52.580;9.734;2023-02-03T11:41:15;101357.09;;;8.70;76.34
75192;BME280;63771;52.580;9.734;2023-02-03T11:43:41;101359.34;;;8.75;75.24
75192;BME280;63771;52.580;9.734;2023-02-03T11:46:07;101358.00;;;8.79;73.38
75192;BME280;63771;52.580;9.734;2023-02-03T11:48:45;101364.47;;;8.84;73.23
75192;BME280;63771;52.580;9.734;2023-02-03T11:54:22;101370.75;;;8.96;73.11
75192;BME280;63771;52.580;9.734;2023-02-03T12:03:17;101381.25;;;8.99;73.11
75192;BME280;63771;52.580;9.734;2023-02-03T12:13:42;101394.41;;;8.95;71.79
75192;BME280;63771;52.580;9.734;2023-02-03T12:18:55;101398.28;;;9.00;69.66
75192;BME280;63771;52.580;9.734;2023-02-03T12:24:34;101406.38;;;9.05;69.31
75192;BME280;63771;52.580;9.734;2023-02-03T12:29:57;101417.75;;;9.00;68.42
75192;BME280;63771;52.580;9.734;2023-02-03T12:32:33;101424.66;;;9.01;69.33
75192;BME280;63771;52.580;9.734;2023-02-03T12:35:22;101425.41;;;9.00;69.11
75192;BME280;63771;52.580;9.734;2023-02-03T12:37:55;101428.69;;;8.99;68.77
75192;BME280;63771;52.580;9.734;2023-02-03T12:40:34;101436.34;;;8.99;67.74
75192;BME280;63771;52.580;9.734;2023-02-03T12:43:41;101430.16;;;8.97;66.69
75192;BME280;63771;52.580;9.734;2023-02-03T12:46:16;101426.16;;;8.99;69.09
75192;BME280;63771;52.580;9.734;2023-02-03T12:51:45;101414.31;;;8.99;67.32
75192;BME280;63771;52.580;9.734;2023-02-03T12:54:30;101417.91;;;9.01;67.40
75192;BME280;63771;52.580;9.734;2023-02-03T12:57:16;101412.25;;;9.04;67.21
75192;BME280;63771;52.580;9.734;2023-02-03T12:59:58;101424.50;;;9.08;66.48
75192;BME280;63771;52.580;9.734;2023-02-03T13:02:34;101417.75;;;9.00;65.94
75192;BME280;63771;52.580;9.734;2023-02-03T13:05:28;101427.78;;;9.07;65.28
75192;BME280;63771;52.580;9.734;2023-02-03T13:08:08;101418.03;;;9.03;65.17
75192;BME280;63771;52.580;9.734;2023-02-03T13:10:40;101445.00;;;9.01;65.51
75192;BME280;63771;52.580;9.734;2023-02-03T13:13:12;101427.63;;;8.97;65.31
75192;BME280;63771;52.580;9.734;2023-02-03T13:15:43;101428.22;;;9.03;64.52
75192;BME280;63771;52.580;9.734;2023-02-03T13:18:30;101436.00;;;8.96;63.10
75192;BME280;63771;52.580;9.734;2023-02-03T13:20:56;101422.25;;;8.94;64.81
75192;BME280;63771;52.580;9.734;2023-02-03T13:23:22;101429.13;;;8.95;63.04
75192;BME280;63771;52.580;9.734;2023-02-03T13:26:14;101469.09;;;8.96;62.68
75192;BME280;63771;52.580;9.734;2023-02-03T13:29:10;101429.13;;;8.95;62.06
75192;BME280;63771;52.580;9.734;2023-02-03T13:34:33;101418.94;;;8.86;63.63
75192;BME280;63771;52.580;9.734;2023-02-03T13:37:19;101435.97;;;8.87;63.71
75192;BME280;63771;52.580;9.734;2023-02-03T13:40:10;101432.53;;;8.86;62.06
75192;BME280;63771;52.580;9.734;2023-02-03T13:42:44;101426.88;;;8.89;63.66
75192;BME280;63771;52.580;9.734;2023-02-03T13:45:22;101435.69;;;8.93;62.69
75192;BME280;63771;52.580;9.734;2023-02-03T13:47:52;101451.72;;;8.92;63.31
75192;BME280;63771;52.580;9.734;2023-02-03T13:50:22;101440.19;;;8.86;62.34
75192;BME280;63771;52.580;9.734;2023-02-03T13:55:39;101434.75;;;8.75;63.97
75192;BME280;63771;52.580;9.734;2023-02-03T13:58:19;101448.81;;;8.71;63.52
75192;BME280;63771;52.580;9.734;2023-02-03T14:06:02;101455.69;;;8.63;63.99
75192;BME280;63771;52.580;9.734;2023-02-03T14:16:37;101480.66;;;8.59;61.86
75192;BME280;63771;52.580;9.734;2023-02-03T14:19:52;101480.50;;;8.57;61.53
75192;BME280;63771;52.580;9.734;2023-02-03T14:22:15;101496.94;;;8.61;60.86
75192;BME280;63771;52.580;9.734;2023-02-03T14:24:43;101484.50;;;8.55;60.71
75192;BME280;63771;52.580;9.734;2023-02-03T14:29:43;101496.19;;;8.53;60.83
75192;BME280;63771;52.580;9.734;2023-02-03T14:32:12;101501.13;;;8.52;61.13
75192;BME280;63771;52.580;9.734;2023-02-03T14:34:48;101521.47;;;8.52;60.96
75192;BME280;63771;52.580;9.734;2023-02-03T14:37:29;101509.47;;;8.51;61.63
75192;BME280;63771;52.580;9.734;2023-02-03T14:45:13;101514.69;;;8.44;63.33
75192;BME280;63771;52.580;9.734;2023-02-03T14:50:31;101523.81;;;8.42;62.63
75192;BME280;63771;52.580;9.734;2023-02-03T14:57:55;101537.47;;;8.35;63.92